sensor_id;sensor_type;location;lat;lon;timestamp;P1;durP1;ratioP1;P2;durP2;ratioP2
14603;SDS011;7388;51.078;13.740;2022-07-29T00:02:08;2.20;;;1.53;;
14603;SDS011;7388;51.078;13.740;2022-07-29T00:04:35;6.37;;;2.70;;
14603;SDS011;7388;51.078;13.740;2022-07-29T00:07:01;2.50;;;1.77;;
14603;SDS011;7388;51.078;13.740;2022-07-29T00:09:28;2.97;;;1.60;;
14603;SDS011;7388;51.078;13.740;2022-07-29T00:11:54;3.17;;;1.40;;
14603;SDS011;7388;51.078;13.740;2022-07-29T00:14:24;3.43;;;2.30;;
14603;SDS011;7388;51.078;13.740;2022-07-29T00:16:50;2.70;;;1.80;;
14603;SDS011;7388;51.078;13.740;2022-07-29T00:19:15;5.67;;;1.80;;
14603;SDS011;7388;51.078;13.740;2022-07-29T00:21:41;3.00;;;2.00;;
14603;SDS011;7388;51.078;13.740;2022-07-29T00:24:07;7.50;;;2.47;;
14603;SDS011;7388;51.078;13.740;2022-07-29T00:26:33;6.13;;;2.20;;
14603;SDS011;7388;51.078;13.740;2022-07-29T00:28:59;3.50;;;2.07;;
14603;SDS011;7388;51.078;13.740;2022-07-29T00:31:26;2.97;;;1.77;;
14603;SDS011;7388;51.078;13.740;2022-07-29T00:33:52;2.85;;;1.75;;
14603;SDS011;7388;51.078;13.740;2022-07-29T00:36:18;2.40;;;1.50;;
14603;SDS011;7388;51.078;13.740;2022-07-29T00:38:46;4.20;;;2.15;;
14603;SDS011;7388;51.078;13.740;2022-07-29T00:41:15;2.63;;;1.95;;
14603;SDS011;7388;51.078;13.740;2022-07-29T00:43:42;4.00;;;2.08;;
14603;SDS011;7388;51.078;13.740;2022-07-29T00:46:08;3.00;;;1.80;;
14603;SDS011;7388;51.078;13.740;2022-07-29T00:48:34;2.25;;;1.10;;
14603;SDS011;7388;51.078;13.740;2022-07-29T00:51:01;2.75;;;1.48;;
14603;SDS011;7388;51.078;13.740;2022-07-29T00:53:27;4.97;;;3.08;;
14603;SDS011;7388;51.078;13.740;2022-07-29T00:55:55;4.47;;;2.30;;
14603;SDS011;7388;51.078;13.740;2022-07-29T00:58:22;3.97;;;1.57;;
14603;SDS011;7388;51.078;13.740;2022-07-29T01:00:49;2.45;;;1.95;;
14603;SDS011;7388;51.078;13.740;2022-07-29T01:03:14;2.70;;;1.43;;
14603;SDS011;7388;51.078;13.740;2022-07-29T01:05:41;2.57;;;1.57;;
14603;SDS011;7388;51.078;13.740;2022-07-29T01:08:10;4.10;;;1.33;;
14603;SDS011;7388;51.078;13.740;2022-07-29T01:10:37;3.35;;;1.73;;
14603;SDS011;7388;51.078;13.740;2022-07-29T01:13:04;4.85;;;1.90;;
14603;SDS011;7388;51.078;13.740;2022-07-29T01:15:30;3.15;;;1.70;;
14603;SDS011;7388;51.078;13.740;2022-07-29T01:18:03;3.65;;;2.47;;
14603;SDS011;7388;51.078;13.740;2022-07-29T01:29:32;2.25;;;1.25;;
14603;SDS011;7388;51.078;13.740;2022-07-29T01:34:31;4.83;;;1.93;;
14603;SDS011;7388;51.078;13.740;2022-07-29T01:37:23;5.63;;;1.83;;
14603;SDS011;7388;51.078;13.740;2022-07-29T01:39:51;3.22;;;1.88;;
14603;SDS011;7388;51.078;13.740;2022-07-29T01:45:36;3.50;;;1.63;;
14603;SDS011;7388;51.078;13.740;2022-07-29T01:47:46;2.60;;;1.80;;
14603;SDS011;7388;51.078;13.740;2022-07-29T01:50:22;3.65;;;2.58;;
14603;SDS011;7388;51.078;13.740;2022-07-29T01:53:00;5.55;;;2.25;;
14603;SDS011;7388;51.078;13.740;2022-07-29T01:55:32;3.92;;;2.10;;
14603;SDS011;7388;51.078;13.740;2022-07-29T01:58:03;3.60;;;2.05;;
14603;SDS011;7388;51.078;13.740;2022-07-29T02:00:30;4.25;;;1.88;;
14603;SDS011;7388;51.078;13.740;2022-07-29T02:02:58;4.80;;;2.50;;
14603;SDS011;7388;51.078;13.740;2022-07-29T02:05:28;3.88;;;1.83;;
14603;SDS011;7388;51.078;13.740;2022-07-29T02:07:56;4.25;;;1.98;;
14603;SDS011;7388;51.078;13.740;2022-07-29T02:10:25;3.72;;;2.60;;
14603;SDS011;7388;51.078;13.740;2022-07-29T02:12:53;3.50;;;2.33;;
14603;SDS011;7388;51.078;13.740;2022-07-29T02:15:21;3.33;;;2.47;;
14603;SDS011;7388;51.078;13.740;2022-07-29T02:17:56;4.25;;;2.63;;
14603;SDS011;7388;51.078;13.740;2022-07-29T02:20:26;8.52;;;2.30;;
14603;SDS011;7388;51.078;13.740;2022-07-29T02:22:54;4.85;;;2.33;;
14603;SDS011;7388;51.078;13.740;2022-07-29T02:25:22;6.63;;;2.85;;
14603;SDS011;7388;51.078;13.740;2022-07-29T02:27:49;4.55;;;3.22;;
14603;SDS011;7388;51.078;13.740;2022-07-29T02:30:16;5.88;;;2.75;;
14603;SDS011;7388;51.078;13.740;2022-07-29T02:32:44;4.35;;;3.47;;
14603;SDS011;7388;51.078;13.740;2022-07-29T02:35:12;9.00;;;4.10;;
14603;SDS011;7388;51.078;13.740;2022-07-29T02:37:40;4.82;;;4.32;;
14603;SDS011;7388;51.078;13.740;2022-07-29T02:40:09;10.90;;;6.22;;
14603;SDS011;7388;51.078;13.740;2022-07-29T02:42:37;7.65;;;6.28;;
14603;SDS011;7388;51.078;13.740;2022-07-29T02:45:06;9.80;;;6.68;;
14603;SDS011;7388;51.078;13.740;2022-07-29T02:47:46;14.27;;;7.93;;
14603;SDS011;7388;51.078;13.740;2022-07-29T02:50:20;10.25;;;8.18;;
14603;SDS011;7388;51.078;13.740;2022-07-29T02:52:57;14.52;;;8.02;;
14603;SDS011;7388;51.078;13.740;2022-07-29T02:58:08;13.77;;;7.90;;
14603;SDS011;7388;51.078;13.740;2022-07-29T03:00:44;11.85;;;7.60;;
14603;SDS011;7388;51.078;13.740;2022-07-29T03:03:13;11.73;;;7.90;;
14603;SDS011;7388;51.078;13.740;2022-07-29T03:05:41;11.00;;;7.60;;
14603;SDS011;7388;51.078;13.740;2022-07-29T03:08:07;13.47;;;8.00;;
14603;SDS011;7388;51.078;13.740;2022-07-29T03:10:36;9.35;;;7.22;;
14603;SDS011;7388;51.078;13.740;2022-07-29T03:13:08;10.75;;;8.80;;
14603;SDS011;7388;51.078;13.740;2022-07-29T03:15:35;18.52;;;8.88;;
14603;SDS011;7388;51.078;13.740;2022-07-29T03:18:02;15.15;;;9.05;;
14603;SDS011;7388;51.078;13.740;2022-07-29T03:20:28;16.08;;;8.55;;
14603;SDS011;7388;51.078;13.740;2022-07-29T03:22:54;10.73;;;8.57;;
14603;SDS011;7388;51.078;13.740;2022-07-29T03:25:20;11.20;;;7.30;;
14603;SDS011;7388;51.078;13.740;2022-07-29T03:27:46;9.20;;;6.43;;
14603;SDS011;7388;51.078;13.740;2022-07-29T03:30:13;9.60;;;7.03;;
14603;SDS011;7388;51.078;13.740;2022-07-29T03:32:40;9.50;;;5.55;;
14603;SDS011;7388;51.078;13.740;2022-07-29T03:35:06;12.73;;;7.87;;
14603;SDS011;7388;51.078;13.740;2022-07-29T03:37:33;9.85;;;7.63;;
14603;SDS011;7388;51.078;13.740;2022-07-29T03:40:02;15.13;;;6.78;;
14603;SDS011;7388;51.078;13.740;2022-07-29T03:42:32;11.50;;;7.88;;
14603;SDS011;7388;51.078;13.740;2022-07-29T03:45:03;11.15;;;7.05;;
14603;SDS011;7388;51.078;13.740;2022-07-29T03:47:32;12.48;;;6.40;;
14603;SDS011;7388;51.078;13.740;2022-07-29T03:50:02;8.07;;;6.82;;
14603;SDS011;7388;51.078;13.740;2022-07-29T03:52:31;10.85;;;7.28;;
14603;SDS011;7388;51.078;13.740;2022-07-29T03:54:58;11.52;;;6.75;;
14603;SDS011;7388;51.078;13.740;2022-07-29T03:57:24;10.98;;;8.07;;
14603;SDS011;7388;51.078;13.740;2022-07-29T03:59:52;12.93;;;7.78;;
14603;SDS011;7388;51.078;13.740;2022-07-29T04:02:19;16.38;;;8.30;;
14603;SDS011;7388;51.078;13.740;2022-07-29T04:04:45;11.27;;;8.98;;
14603;SDS011;7388;51.078;13.740;2022-07-29T04:07:12;12.20;;;8.93;;
14603;SDS011;7388;51.078;13.740;2022-07-29T04:09:39;10.20;;;7.70;;
14603;SDS011;7388;51.078;13.740;2022-07-29T04:12:05;10.20;;;8.10;;
14603;SDS011;7388;51.078;13.740;2022-07-29T04:14:31;13.35;;;7.95;;
14603;SDS011;7388;51.078;13.740;2022-07-29T04:16:58;15.38;;;8.80;;
14603;SDS011;7388;51.078;13.740;2022-07-29T04:19:25;14.48;;;8.70;;
14603;SDS011;7388;51.078;13.740;2022-07-29T04:21:51;11.93;;;8.00;;
14603;SDS011;7388;51.078;13.740;2022-07-29T04:24:16;10.67;;;9.27;;
14603;SDS011;7388;51.078;13.740;2022-07-29T04:26:42;9.53;;;8.50;;
14603;SDS011;7388;51.078;13.740;2022-07-29T04:29:10;10.80;;;8.25;;
14603;SDS011;7388;51.078;13.740;2022-07-29T04:31:37;13.63;;;8.50;;
14603;SDS011;7388;51.078;13.740;2022-07-29T04:34:03;14.93;;;8.23;;
14603;SDS011;7388;51.078;13.740;2022-07-29T04:36:28;13.60;;;8.23;;
14603;SDS011;7388;51.078;13.740;2022-07-29T04:38:54;13.10;;;8.57;;
14603;SDS011;7388;51.078;13.740;2022-07-29T04:41:20;9.57;;;8.67;;
14603;SDS011;7388;51.078;13.740;2022-07-29T04:43:46;10.63;;;7.47;;
14603;SDS011;7388;51.078;13.740;2022-07-29T04:46:11;9.83;;;8.20;;
14603;SDS011;7388;51.078;13.740;2022-07-29T04:48:37;10.20;;;8.97;;
14603;SDS011;7388;51.078;13.740;2022-07-29T04:51:03;10.67;;;8.53;;
14603;SDS011;7388;51.078;13.740;2022-07-29T04:53:29;11.90;;;9.10;;
14603;SDS011;7388;51.078;13.740;2022-07-29T04:55:55;13.10;;;9.63;;
14603;SDS011;7388;51.078;13.740;2022-07-29T04:58:20;13.00;;;8.97;;
14603;SDS011;7388;51.078;13.740;2022-07-29T05:00:48;12.35;;;10.40;;
14603;SDS011;7388;51.078;13.740;2022-07-29T05:03:14;12.20;;;10.35;;
14603;SDS011;7388;51.078;13.740;2022-07-29T05:05:40;16.33;;;10.00;;
14603;SDS011;7388;51.078;13.740;2022-07-29T05:08:07;15.97;;;11.97;;
14603;SDS011;7388;51.078;13.740;2022-07-29T05:10:33;13.07;;;9.97;;
14603;SDS011;7388;51.078;13.740;2022-07-29T05:13:03;20.03;;;10.50;;
14603;SDS011;7388;51.078;13.740;2022-07-29T05:15:31;12.18;;;9.13;;
14603;SDS011;7388;51.078;13.740;2022-07-29T05:17:57;14.63;;;9.93;;
14603;SDS011;7388;51.078;13.740;2022-07-29T05:20:23;18.10;;;12.07;;
14603;SDS011;7388;51.078;13.740;2022-07-29T05:22:53;16.05;;;12.93;;
14603;SDS011;7388;51.078;13.740;2022-07-29T05:25:20;14.23;;;10.18;;
14603;SDS011;7388;51.078;13.740;2022-07-29T05:27:46;12.15;;;9.63;;
14603;SDS011;7388;51.078;13.740;2022-07-29T05:30:17;11.52;;;10.32;;
14603;SDS011;7388;51.078;13.740;2022-07-29T05:32:49;15.70;;;10.50;;
14603;SDS011;7388;51.078;13.740;2022-07-29T05:35:15;20.27;;;10.13;;
14603;SDS011;7388;51.078;13.740;2022-07-29T05:37:41;14.77;;;9.27;;
14603;SDS011;7388;51.078;13.740;2022-07-29T05:40:07;13.10;;;10.10;;
14603;SDS011;7388;51.078;13.740;2022-07-29T05:42:33;12.83;;;10.70;;
14603;SDS011;7388;51.078;13.740;2022-07-29T05:44:59;13.18;;;10.30;;
14603;SDS011;7388;51.078;13.740;2022-07-29T05:47:26;15.07;;;12.20;;
14603;SDS011;7388;51.078;13.740;2022-07-29T05:49:51;13.00;;;9.93;;
14603;SDS011;7388;51.078;13.740;2022-07-29T05:52:17;12.63;;;10.37;;
14603;SDS011;7388;51.078;13.740;2022-07-29T05:54:43;12.17;;;10.10;;
14603;SDS011;7388;51.078;13.740;2022-07-29T05:57:15;13.40;;;9.63;;
14603;SDS011;7388;51.078;13.740;2022-07-29T05:59:42;13.57;;;11.70;;
14603;SDS011;7388;51.078;13.740;2022-07-29T06:02:08;15.13;;;12.67;;
14603;SDS011;7388;51.078;13.740;2022-07-29T06:04:34;11.40;;;9.00;;
14603;SDS011;7388;51.078;13.740;2022-07-29T06:06:59;14.73;;;10.20;;
14603;SDS011;7388;51.078;13.740;2022-07-29T06:09:26;17.17;;;11.03;;
14603;SDS011;7388;51.078;13.740;2022-07-29T06:11:52;15.23;;;10.30;;
14603;SDS011;7388;51.078;13.740;2022-07-29T06:14:18;11.70;;;9.20;;
14603;SDS011;7388;51.078;13.740;2022-07-29T06:16:44;14.10;;;9.77;;
14603;SDS011;7388;51.078;13.740;2022-07-29T06:19:10;12.30;;;10.57;;
14603;SDS011;7388;51.078;13.740;2022-07-29T06:21:36;16.30;;;12.43;;
14603;SDS011;7388;51.078;13.740;2022-07-29T06:24:12;22.97;;;12.27;;
14603;SDS011;7388;51.078;13.740;2022-07-29T06:26:39;14.20;;;11.37;;
14603;SDS011;7388;51.078;13.740;2022-07-29T06:29:05;13.90;;;10.37;;
14603;SDS011;7388;51.078;13.740;2022-07-29T06:31:32;14.63;;;10.40;;
14603;SDS011;7388;51.078;13.740;2022-07-29T06:33:58;17.23;;;12.60;;
14603;SDS011;7388;51.078;13.740;2022-07-29T06:36:23;13.13;;;10.13;;
14603;SDS011;7388;51.078;13.740;2022-07-29T06:38:49;17.90;;;11.83;;
14603;SDS011;7388;51.078;13.740;2022-07-29T06:41:15;14.57;;;9.47;;
14603;SDS011;7388;51.078;13.740;2022-07-29T06:43:42;14.40;;;9.90;;
14603;SDS011;7388;51.078;13.740;2022-07-29T06:46:10;16.00;;;9.23;;
14603;SDS011;7388;51.078;13.740;2022-07-29T06:48:39;11.73;;;9.27;;
14603;SDS011;7388;51.078;13.740;2022-07-29T06:51:07;11.73;;;9.07;;
14603;SDS011;7388;51.078;13.740;2022-07-29T06:53:33;12.00;;;9.70;;
14603;SDS011;7388;51.078;13.740;2022-07-29T06:56:00;19.03;;;9.30;;
14603;SDS011;7388;51.078;13.740;2022-07-29T06:58:27;15.37;;;11.17;;
14603;SDS011;7388;51.078;13.740;2022-07-29T07:00:54;14.47;;;9.60;;
14603;SDS011;7388;51.078;13.740;2022-07-29T07:03:20;10.87;;;8.73;;
14603;SDS011;7388;51.078;13.740;2022-07-29T07:05:47;10.50;;;9.40;;
14603;SDS011;7388;51.078;13.740;2022-07-29T07:08:13;10.17;;;9.13;;
14603;SDS011;7388;51.078;13.740;2022-07-29T07:10:41;10.67;;;9.60;;
14603;SDS011;7388;51.078;13.740;2022-07-29T07:13:07;17.87;;;10.70;;
14603;SDS011;7388;51.078;13.740;2022-07-29T07:15:33;29.27;;;10.47;;
14603;SDS011;7388;51.078;13.740;2022-07-29T07:18:00;15.23;;;8.80;;
14603;SDS011;7388;51.078;13.740;2022-07-29T07:20:25;11.23;;;9.40;;
14603;SDS011;7388;51.078;13.740;2022-07-29T07:22:51;19.40;;;9.00;;
14603;SDS011;7388;51.078;13.740;2022-07-29T07:25:17;12.57;;;9.23;;
14603;SDS011;7388;51.078;13.740;2022-07-29T07:27:43;17.70;;;8.90;;
14603;SDS011;7388;51.078;13.740;2022-07-29T07:30:10;9.07;;;7.37;;
14603;SDS011;7388;51.078;13.740;2022-07-29T07:32:36;12.43;;;8.40;;
14603;SDS011;7388;51.078;13.740;2022-07-29T07:35:06;18.07;;;9.03;;
14603;SDS011;7388;51.078;13.740;2022-07-29T07:37:32;10.47;;;8.43;;
14603;SDS011;7388;51.078;13.740;2022-07-29T07:39:59;13.77;;;9.10;;
14603;SDS011;7388;51.078;13.740;2022-07-29T07:42:24;10.50;;;7.90;;
14603;SDS011;7388;51.078;13.740;2022-07-29T07:44:50;9.73;;;7.40;;
14603;SDS011;7388;51.078;13.740;2022-07-29T07:47:16;14.57;;;7.70;;
14603;SDS011;7388;51.078;13.740;2022-07-29T07:49:48;13.43;;;7.47;;
14603;SDS011;7388;51.078;13.740;2022-07-29T07:52:18;11.43;;;7.77;;
14603;SDS011;7388;51.078;13.740;2022-07-29T07:54:45;13.73;;;9.00;;
14603;SDS011;7388;51.078;13.740;2022-07-29T07:57:12;11.40;;;7.93;;
14603;SDS011;7388;51.078;13.740;2022-07-29T07:59:39;16.30;;;8.50;;
14603;SDS011;7388;51.078;13.740;2022-07-29T08:02:05;9.93;;;7.73;;
14603;SDS011;7388;51.078;13.740;2022-07-29T08:04:31;12.80;;;7.43;;
14603;SDS011;7388;51.078;13.740;2022-07-29T08:06:58;9.67;;;7.17;;
14603;SDS011;7388;51.078;13.740;2022-07-29T08:09:25;9.83;;;6.47;;
14603;SDS011;7388;51.078;13.740;2022-07-29T08:11:52;9.03;;;7.90;;
14603;SDS011;7388;51.078;13.740;2022-07-29T08:14:18;13.50;;;7.67;;
14603;SDS011;7388;51.078;13.740;2022-07-29T08:16:44;13.47;;;8.23;;
14603;SDS011;7388;51.078;13.740;2022-07-29T08:19:10;12.23;;;8.40;;
14603;SDS011;7388;51.078;13.740;2022-07-29T08:21:36;11.00;;;7.10;;
14603;SDS011;7388;51.078;13.740;2022-07-29T08:24:02;9.80;;;7.40;;
14603;SDS011;7388;51.078;13.740;2022-07-29T08:26:46;9.73;;;7.50;;
14603;SDS011;7388;51.078;13.740;2022-07-29T08:29:12;15.40;;;7.10;;
14603;SDS011;7388;51.078;13.740;2022-07-29T08:31:38;13.80;;;7.27;;
14603;SDS011;7388;51.078;13.740;2022-07-29T08:34:04;12.33;;;7.53;;
14603;SDS011;7388;51.078;13.740;2022-07-29T08:36:31;13.00;;;6.17;;
14603;SDS011;7388;51.078;13.740;2022-07-29T08:38:57;11.00;;;6.83;;
14603;SDS011;7388;51.078;13.740;2022-07-29T08:41:23;12.00;;;7.27;;
14603;SDS011;7388;51.078;13.740;2022-07-29T08:43:49;11.80;;;7.07;;
14603;SDS011;7388;51.078;13.740;2022-07-29T08:46:16;12.17;;;6.70;;
14603;SDS011;7388;51.078;13.740;2022-07-29T08:48:42;13.87;;;8.07;;
14603;SDS011;7388;51.078;13.740;2022-07-29T08:51:08;11.97;;;7.50;;
14603;SDS011;7388;51.078;13.740;2022-07-29T08:53:41;10.13;;;7.77;;
14603;SDS011;7388;51.078;13.740;2022-07-29T08:56:11;15.60;;;9.47;;
14603;SDS011;7388;51.078;13.740;2022-07-29T08:58:38;10.03;;;7.63;;
14603;SDS011;7388;51.078;13.740;2022-07-29T09:01:05;12.00;;;8.27;;
14603;SDS011;7388;51.078;13.740;2022-07-29T09:03:32;14.83;;;9.40;;
14603;SDS011;7388;51.078;13.740;2022-07-29T09:06:01;13.00;;;8.27;;
14603;SDS011;7388;51.078;13.740;2022-07-29T09:08:28;14.23;;;9.60;;
14603;SDS011;7388;51.078;13.740;2022-07-29T09:10:56;12.07;;;7.30;;
14603;SDS011;7388;51.078;13.740;2022-07-29T09:13:25;13.70;;;8.00;;
14603;SDS011;7388;51.078;13.740;2022-07-29T09:15:51;9.40;;;7.10;;
14603;SDS011;7388;51.078;13.740;2022-07-29T09:21:07;8.63;;;6.27;;
14603;SDS011;7388;51.078;13.740;2022-07-29T09:24:03;10.60;;;7.30;;
14603;SDS011;7388;51.078;13.740;2022-07-29T09:26:33;13.50;;;7.70;;
14603;SDS011;7388;51.078;13.740;2022-07-29T09:29:07;10.83;;;7.00;;
14603;SDS011;7388;51.078;13.740;2022-07-29T09:31:35;9.63;;;6.60;;
14603;SDS011;7388;51.078;13.740;2022-07-29T09:34:07;7.13;;;5.57;;
14603;SDS011;7388;51.078;13.740;2022-07-29T09:36:47;14.70;;;7.67;;
14603;SDS011;7388;51.078;13.740;2022-07-29T09:39:14;12.47;;;6.93;;
14603;SDS011;7388;51.078;13.740;2022-07-29T09:41:52;9.23;;;6.47;;
14603;SDS011;7388;51.078;13.740;2022-07-29T09:44:19;12.00;;;6.30;;
14603;SDS011;7388;51.078;13.740;2022-07-29T09:47:02;7.83;;;5.70;;
14603;SDS011;7388;51.078;13.740;2022-07-29T09:49:32;9.67;;;6.70;;
14603;SDS011;7388;51.078;13.740;2022-07-29T09:52:09;11.90;;;7.90;;
14603;SDS011;7388;51.078;13.740;2022-07-29T09:54:36;9.50;;;6.07;;
14603;SDS011;7388;51.078;13.740;2022-07-29T09:57:24;11.43;;;6.80;;
14603;SDS011;7388;51.078;13.740;2022-07-29T10:00:23;11.50;;;7.70;;
14603;SDS011;7388;51.078;13.740;2022-07-29T10:02:43;7.87;;;5.67;;
14603;SDS011;7388;51.078;13.740;2022-07-29T10:05:25;12.63;;;7.70;;
14603;SDS011;7388;51.078;13.740;2022-07-29T10:07:56;10.67;;;7.33;;
14603;SDS011;7388;51.078;13.740;2022-07-29T10:15:17;8.97;;;7.00;;
14603;SDS011;7388;51.078;13.740;2022-07-29T10:17:43;11.43;;;6.80;;
14603;SDS011;7388;51.078;13.740;2022-07-29T10:20:10;9.87;;;7.10;;
14603;SDS011;7388;51.078;13.740;2022-07-29T10:22:36;10.70;;;6.60;;
14603;SDS011;7388;51.078;13.740;2022-07-29T10:25:03;7.87;;;6.13;;
14603;SDS011;7388;51.078;13.740;2022-07-29T10:27:29;6.97;;;4.97;;
14603;SDS011;7388;51.078;13.740;2022-07-29T10:29:54;9.70;;;6.00;;
14603;SDS011;7388;51.078;13.740;2022-07-29T10:38:14;10.43;;;6.10;;
14603;SDS011;7388;51.078;13.740;2022-07-29T10:46:47;8.50;;;4.97;;
14603;SDS011;7388;51.078;13.740;2022-07-29T10:49:20;6.27;;;5.00;;
14603;SDS011;7388;51.078;13.740;2022-07-29T10:57:23;5.37;;;4.00;;
14603;SDS011;7388;51.078;13.740;2022-07-29T11:05:08;5.13;;;3.47;;
14603;SDS011;7388;51.078;13.740;2022-07-29T11:07:35;3.63;;;2.80;;
14603;SDS011;7388;51.078;13.740;2022-07-29T11:15:06;3.00;;;2.10;;
14603;SDS011;7388;51.078;13.740;2022-07-29T11:20:34;3.37;;;2.17;;
14603;SDS011;7388;51.078;13.740;2022-07-29T11:23:24;3.20;;;2.37;;
14603;SDS011;7388;51.078;13.740;2022-07-29T11:39:37;3.43;;;2.67;;
14603;SDS011;7388;51.078;13.740;2022-07-29T11:47:25;3.07;;;2.27;;
14603;SDS011;7388;51.078;13.740;2022-07-29T11:49:52;4.93;;;3.07;;
14603;SDS011;7388;51.078;13.740;2022-07-29T11:52:20;3.97;;;2.57;;
14603;SDS011;7388;51.078;13.740;2022-07-29T11:54:49;3.07;;;2.00;;
14603;SDS011;7388;51.078;13.740;2022-07-29T11:57:16;3.60;;;2.77;;
14603;SDS011;7388;51.078;13.740;2022-07-29T11:59:44;3.80;;;2.60;;
14603;SDS011;7388;51.078;13.740;2022-07-29T12:02:11;4.63;;;2.83;;
14603;SDS011;7388;51.078;13.740;2022-07-29T12:07:33;4.07;;;2.50;;
14603;SDS011;7388;51.078;13.740;2022-07-29T12:09:59;3.00;;;2.20;;
14603;SDS011;7388;51.078;13.740;2022-07-29T12:12:26;4.83;;;2.97;;
14603;SDS011;7388;51.078;13.740;2022-07-29T12:14:52;5.70;;;2.57;;
14603;SDS011;7388;51.078;13.740;2022-07-29T12:17:27;3.37;;;2.60;;
14603;SDS011;7388;51.078;13.740;2022-07-29T12:19:58;5.20;;;4.07;;
14603;SDS011;7388;51.078;13.740;2022-07-29T12:22:26;3.77;;;2.70;;
14603;SDS011;7388;51.078;13.740;2022-07-29T12:24:53;3.60;;;2.80;;
14603;SDS011;7388;51.078;13.740;2022-07-29T12:27:20;6.20;;;3.03;;
14603;SDS011;7388;51.078;13.740;2022-07-29T12:30:08;3.47;;;2.97;;
14603;SDS011;7388;51.078;13.740;2022-07-29T12:32:34;4.53;;;2.90;;
14603;SDS011;7388;51.078;13.740;2022-07-29T12:35:06;6.27;;;3.90;;
14603;SDS011;7388;51.078;13.740;2022-07-29T12:37:35;5.33;;;2.97;;
14603;SDS011;7388;51.078;13.740;2022-07-29T12:40:03;3.97;;;3.27;;
14603;SDS011;7388;51.078;13.740;2022-07-29T12:42:30;5.50;;;3.57;;
14603;SDS011;7388;51.078;13.740;2022-07-29T12:44:57;4.30;;;3.73;;
14603;SDS011;7388;51.078;13.740;2022-07-29T12:47:23;3.60;;;2.83;;
14603;SDS011;7388;51.078;13.740;2022-07-29T12:49:49;4.70;;;3.40;;
14603;SDS011;7388;51.078;13.740;2022-07-29T12:54:55;4.83;;;3.43;;
14603;SDS011;7388;51.078;13.740;2022-07-29T12:57:21;6.53;;;4.33;;
14603;SDS011;7388;51.078;13.740;2022-07-29T13:00:08;10.00;;;5.23;;
14603;SDS011;7388;51.078;13.740;2022-07-29T13:02:36;4.17;;;3.10;;
14603;SDS011;7388;51.078;13.740;2022-07-29T13:05:04;7.00;;;3.87;;
14603;SDS011;7388;51.078;13.740;2022-07-29T13:07:31;6.90;;;3.60;;
14603;SDS011;7388;51.078;13.740;2022-07-29T13:10:13;7.70;;;3.80;;
14603;SDS011;7388;51.078;13.740;2022-07-29T13:15:34;6.83;;;3.10;;
14603;SDS011;7388;51.078;13.740;2022-07-29T13:18:25;2.97;;;2.50;;
14603;SDS011;7388;51.078;13.740;2022-07-29T13:20:55;4.00;;;3.27;;
14603;SDS011;7388;51.078;13.740;2022-07-29T13:23:22;3.60;;;3.00;;
14603;SDS011;7388;51.078;13.740;2022-07-29T13:25:48;4.77;;;3.87;;
14603;SDS011;7388;51.078;13.740;2022-07-29T13:28:13;7.63;;;3.87;;
14603;SDS011;7388;51.078;13.740;2022-07-29T13:30:39;4.27;;;3.30;;
14603;SDS011;7388;51.078;13.740;2022-07-29T13:33:08;5.63;;;3.27;;
14603;SDS011;7388;51.078;13.740;2022-07-29T13:35:34;3.40;;;2.40;;
14603;SDS011;7388;51.078;13.740;2022-07-29T13:38:00;3.20;;;2.43;;
14603;SDS011;7388;51.078;13.740;2022-07-29T13:40:25;4.93;;;3.90;;
14603;SDS011;7388;51.078;13.740;2022-07-29T13:42:51;8.00;;;4.43;;
14603;SDS011;7388;51.078;13.740;2022-07-29T13:45:17;5.97;;;3.10;;
14603;SDS011;7388;51.078;13.740;2022-07-29T13:47:43;5.97;;;3.10;;
14603;SDS011;7388;51.078;13.740;2022-07-29T13:50:09;4.17;;;3.37;;
14603;SDS011;7388;51.078;13.740;2022-07-29T13:52:35;5.97;;;4.53;;
14603;SDS011;7388;51.078;13.740;2022-07-29T13:55:02;5.50;;;3.27;;
14603;SDS011;7388;51.078;13.740;2022-07-29T13:57:29;5.20;;;3.43;;
14603;SDS011;7388;51.078;13.740;2022-07-29T13:59:56;2.50;;;2.20;;
14603;SDS011;7388;51.078;13.740;2022-07-29T14:02:22;4.93;;;3.80;;
14603;SDS011;7388;51.078;13.740;2022-07-29T14:04:48;3.20;;;2.53;;
14603;SDS011;7388;51.078;13.740;2022-07-29T14:07:14;3.90;;;2.70;;
14603;SDS011;7388;51.078;13.740;2022-07-29T14:09:39;3.37;;;2.03;;
14603;SDS011;7388;51.078;13.740;2022-07-29T14:12:05;2.80;;;2.37;;
14603;SDS011;7388;51.078;13.740;2022-07-29T14:14:31;3.77;;;2.47;;
14603;SDS011;7388;51.078;13.740;2022-07-29T14:16:57;3.60;;;2.63;;
14603;SDS011;7388;51.078;13.740;2022-07-29T14:19:23;5.23;;;3.10;;
14603;SDS011;7388;51.078;13.740;2022-07-29T14:21:49;3.70;;;2.40;;
14603;SDS011;7388;51.078;13.740;2022-07-29T14:24:15;4.43;;;3.47;;
14603;SDS011;7388;51.078;13.740;2022-07-29T14:26:41;3.07;;;2.17;;
14603;SDS011;7388;51.078;13.740;2022-07-29T14:29:06;3.73;;;3.00;;
14603;SDS011;7388;51.078;13.740;2022-07-29T14:31:32;5.50;;;3.13;;
14603;SDS011;7388;51.078;13.740;2022-07-29T14:33:58;3.70;;;3.00;;
14603;SDS011;7388;51.078;13.740;2022-07-29T14:36:24;4.90;;;3.00;;
14603;SDS011;7388;51.078;13.740;2022-07-29T14:38:50;4.60;;;3.40;;
14603;SDS011;7388;51.078;13.740;2022-07-29T14:41:15;6.17;;;2.90;;
14603;SDS011;7388;51.078;13.740;2022-07-29T14:43:41;3.80;;;3.23;;
14603;SDS011;7388;51.078;13.740;2022-07-29T14:46:07;2.73;;;2.30;;
14603;SDS011;7388;51.078;13.740;2022-07-29T14:48:33;4.23;;;2.80;;
14603;SDS011;7388;51.078;13.740;2022-07-29T14:50:58;4.93;;;2.70;;
14603;SDS011;7388;51.078;13.740;2022-07-29T14:53:24;3.77;;;2.90;;
14603;SDS011;7388;51.078;13.740;2022-07-29T14:55:50;7.80;;;3.60;;
14603;SDS011;7388;51.078;13.740;2022-07-29T14:58:16;6.30;;;3.57;;
14603;SDS011;7388;51.078;13.740;2022-07-29T15:00:42;4.07;;;3.30;;
14603;SDS011;7388;51.078;13.740;2022-07-29T15:03:08;4.80;;;4.30;;
14603;SDS011;7388;51.078;13.740;2022-07-29T15:05:36;3.30;;;3.00;;
14603;SDS011;7388;51.078;13.740;2022-07-29T15:08:02;6.03;;;3.63;;
14603;SDS011;7388;51.078;13.740;2022-07-29T15:10:28;7.80;;;4.80;;
14603;SDS011;7388;51.078;13.740;2022-07-29T15:12:54;4.73;;;4.20;;
14603;SDS011;7388;51.078;13.740;2022-07-29T15:15:20;5.90;;;4.53;;
14603;SDS011;7388;51.078;13.740;2022-07-29T15:17:46;5.47;;;4.70;;
14603;SDS011;7388;51.078;13.740;2022-07-29T15:20:12;7.97;;;5.27;;
14603;SDS011;7388;51.078;13.740;2022-07-29T15:22:38;6.93;;;5.20;;
14603;SDS011;7388;51.078;13.740;2022-07-29T15:25:06;7.33;;;6.53;;
14603;SDS011;7388;51.078;13.740;2022-07-29T15:27:32;7.90;;;5.97;;
14603;SDS011;7388;51.078;13.740;2022-07-29T15:29:58;7.97;;;6.10;;
14603;SDS011;7388;51.078;13.740;2022-07-29T15:32:24;9.63;;;5.50;;
14603;SDS011;7388;51.078;13.740;2022-07-29T15:34:49;12.57;;;7.40;;
14603;SDS011;7388;51.078;13.740;2022-07-29T15:37:15;9.13;;;6.40;;
14603;SDS011;7388;51.078;13.740;2022-07-29T15:39:41;7.57;;;6.13;;
14603;SDS011;7388;51.078;13.740;2022-07-29T15:42:07;7.77;;;6.30;;
14603;SDS011;7388;51.078;13.740;2022-07-29T15:44:33;6.17;;;5.57;;
14603;SDS011;7388;51.078;13.740;2022-07-29T15:46:59;7.40;;;6.67;;
14603;SDS011;7388;51.078;13.740;2022-07-29T15:49:28;11.50;;;6.63;;
14603;SDS011;7388;51.078;13.740;2022-07-29T15:51:58;8.13;;;7.10;;
14603;SDS011;7388;51.078;13.740;2022-07-29T15:54:31;10.43;;;7.30;;
14603;SDS011;7388;51.078;13.740;2022-07-29T15:56:57;8.60;;;7.00;;
14603;SDS011;7388;51.078;13.740;2022-07-29T15:59:23;8.37;;;7.60;;
14603;SDS011;7388;51.078;13.740;2022-07-29T16:01:49;10.10;;;8.30;;
14603;SDS011;7388;51.078;13.740;2022-07-29T16:04:15;11.40;;;7.30;;
14603;SDS011;7388;51.078;13.740;2022-07-29T16:06:42;9.10;;;7.73;;
14603;SDS011;7388;51.078;13.740;2022-07-29T16:09:09;10.00;;;6.67;;